sensor_id;sensor_type;location;lat;lon;timestamp;P1;durP1;ratioP1;P2;durP2;ratioP2
57609;SDS011;43435;46.186;9.024;2023-06-22T08:48:45;10.30;;;6.00;;
57609;SDS011;43435;46.186;9.024;2023-06-22T08:51:10;15.93;;;6.25;;
57609;SDS011;43435;46.186;9.024;2023-06-22T08:53:36;10.80;;;5.68;;
57609;SDS011;43435;46.186;9.024;2023-06-22T08:56:01;12.82;;;6.07;;
57609;SDS011;43435;46.186;9.024;2023-06-22T08:58:26;10.17;;;5.37;;
57609;SDS011;43435;46.186;9.024;2023-06-22T09:00:52;8.18;;;5.50;;
57609;SDS011;43435;46.186;9.024;2023-06-22T09:03:17;12.32;;;5.82;;
57609;SDS011;43435;46.186;9.024;2023-06-22T09:05:42;11.60;;;6.40;;
57609;SDS011;43435;46.186;9.024;2023-06-22T09:08:08;11.10;;;6.00;;
57609;SDS011;43435;46.186;9.024;2023-06-22T09:10:33;12.33;;;5.67;;
57609;SDS011;43435;46.186;9.024;2023-06-22T09:12:58;12.83;;;6.27;;
57609;SDS011;43435;46.186;9.024;2023-06-22T09:15:24;14.85;;;6.07;;
57609;SDS011;43435;46.186;9.024;2023-06-22T09:17:49;10.68;;;6.05;;
57609;SDS011;43435;46.186;9.024;2023-06-22T09:20:15;13.27;;;6.45;;
57609;SDS011;43435;46.186;9.024;2023-06-22T09:22:40;11.10;;;6.15;;
57609;SDS011;43435;46.186;9.024;2023-06-22T09:25:06;11.07;;;6.40;;
57609;SDS011;43435;46.186;9.024;2023-06-22T09:27:32;9.70;;;5.78;;
57609;SDS011;43435;46.186;9.024;2023-06-22T09:29:57;9.50;;;5.97;;
57609;SDS011;43435;46.186;9.024;2023-06-22T09:32:23;14.52;;;6.60;;
57609;SDS011;43435;46.186;9.024;2023-06-22T09:34:49;13.52;;;6.50;;
57609;SDS011;43435;46.186;9.024;2023-06-22T09:37:15;11.98;;;6.32;;
57609;SDS011;43435;46.186;9.024;2023-06-22T09:39:40;16.10;;;6.47;;
57609;SDS011;43435;46.186;9.024;2023-06-22T09:42:05;9.50;;;5.63;;
57609;SDS011;43435;46.186;9.024;2023-06-22T17:15:33;9.93;;;6.80;;
57609;SDS011;43435;46.186;9.024;2023-06-22T17:18:04;11.63;;;7.70;;
57609;SDS011;43435;46.186;9.024;2023-06-22T17:20:30;11.90;;;7.05;;
57609;SDS011;43435;46.186;9.024;2023-06-22T17:22:55;11.70;;;7.70;;
57609;SDS011;43435;46.186;9.024;2023-06-22T17:25:21;11.30;;;7.55;;
57609;SDS011;43435;46.186;9.024;2023-06-22T17:27:48;10.57;;;7.50;;
57609;SDS011;43435;46.186;9.024;2023-06-22T17:30:14;9.85;;;7.18;;
57609;SDS011;43435;46.186;9.024;2023-06-22T17:32:43;10.95;;;6.80;;
57609;SDS011;43435;46.186;9.024;2023-06-22T17:35:10;10.02;;;6.25;;
57609;SDS011;43435;46.186;9.024;2023-06-22T17:37:49;12.18;;;6.97;;
57609;SDS011;43435;46.186;9.024;2023-06-22T17:40:22;13.82;;;6.57;;
57609;SDS011;43435;46.186;9.024;2023-06-22T17:42:49;11.48;;;7.88;;
57609;SDS011;43435;46.186;9.024;2023-06-22T17:45:16;12.68;;;7.68;;
57609;SDS011;43435;46.186;9.024;2023-06-22T17:47:45;13.07;;;7.45;;
57609;SDS011;43435;46.186;9.024;2023-06-22T17:50:12;16.13;;;8.20;;
57609;SDS011;43435;46.186;9.024;2023-06-22T17:52:37;12.98;;;8.45;;
57609;SDS011;43435;46.186;9.024;2023-06-22T17:55:02;11.73;;;8.10;;
57609;SDS011;43435;46.186;9.024;2023-06-22T17:57:38;15.15;;;8.05;;
57609;SDS011;43435;46.186;9.024;2023-06-22T18:00:04;12.52;;;8.38;;
57609;SDS011;43435;46.186;9.024;2023-06-22T18:02:35;15.95;;;8.45;;
57609;SDS011;43435;46.186;9.024;2023-06-22T18:05:02;14.25;;;8.13;;
57609;SDS011;43435;46.186;9.024;2023-06-22T18:07:28;10.80;;;7.63;;
57609;SDS011;43435;46.186;9.024;2023-06-22T18:09:55;13.45;;;7.90;;
57609;SDS011;43435;46.186;9.024;2023-06-22T18:12:23;11.52;;;8.25;;
57609;SDS011;43435;46.186;9.024;2023-06-22T18:14:49;13.60;;;8.27;;
57609;SDS011;43435;46.186;9.024;2023-06-22T18:17:15;15.77;;;8.25;;
57609;SDS011;43435;46.186;9.024;2023-06-22T18:19:43;10.25;;;8.05;;
57609;SDS011;43435;46.186;9.024;2023-06-22T18:22:10;13.68;;;8.13;;
57609;SDS011;43435;46.186;9.024;2023-06-22T18:24:35;11.38;;;7.95;;
57609;SDS011;43435;46.186;9.024;2023-06-22T18:27:02;13.32;;;7.88;;
57609;SDS011;43435;46.186;9.024;2023-06-22T18:29:29;10.07;;;7.30;;
57609;SDS011;43435;46.186;9.024;2023-06-22T18:31:56;12.60;;;8.48;;
57609;SDS011;43435;46.186;9.024;2023-06-22T18:34:22;13.30;;;7.47;;
57609;SDS011;43435;46.186;9.024;2023-06-22T18:36:51;16.15;;;8.40;;
57609;SDS011;43435;46.186;9.024;2023-06-22T18:39:19;10.77;;;7.47;;
57609;SDS011;43435;46.186;9.024;2023-06-22T18:41:53;13.38;;;7.93;;
57609;SDS011;43435;46.186;9.024;2023-06-22T18:44:20;12.30;;;7.78;;
57609;SDS011;43435;46.186;9.024;2023-06-22T18:47:06;14.07;;;8.30;;
57609;SDS011;43435;46.186;9.024;2023-06-22T18:49:33;13.80;;;7.75;;
57609;SDS011;43435;46.186;9.024;2023-06-22T18:54:39;10.67;;;8.30;;
57609;SDS011;43435;46.186;9.024;2023-06-22T18:57:26;24.25;;;11.45;;
57609;SDS011;43435;46.186;9.024;2023-06-22T19:05:18;11.65;;;7.65;;
57609;SDS011;43435;46.186;9.024;2023-06-22T19:08:04;12.23;;;8.80;;
57609;SDS011;43435;46.186;9.024;2023-06-22T19:18:34;13.88;;;8.05;;
57609;SDS011;43435;46.186;9.024;2023-06-22T19:21:01;14.48;;;7.75;;
57609;SDS011;43435;46.186;9.024;2023-06-22T19:26:00;11.95;;;7.85;;
57609;SDS011;43435;46.186;9.024;2023-06-22T19:28:27;12.23;;;8.32;;
57609;SDS011;43435;46.186;9.024;2023-06-22T19:30:55;14.18;;;7.38;;
57609;SDS011;43435;46.186;9.024;2023-06-22T19:33:23;13.55;;;8.00;;
57609;SDS011;43435;46.186;9.024;2023-06-22T19:35:51;12.25;;;7.47;;
57609;SDS011;43435;46.186;9.024;2023-06-22T19:38:18;12.65;;;7.70;;
57609;SDS011;43435;46.186;9.024;2023-06-22T19:40:44;14.18;;;7.85;;
57609;SDS011;43435;46.186;9.024;2023-06-22T19:43:10;13.98;;;7.60;;
57609;SDS011;43435;46.186;9.024;2023-06-22T19:45:38;12.98;;;7.78;;
57609;SDS011;43435;46.186;9.024;2023-06-22T19:48:06;12.93;;;8.23;;
57609;SDS011;43435;46.186;9.024;2023-06-22T19:50:33;10.45;;;7.72;;
57609;SDS011;43435;46.186;9.024;2023-06-22T19:52:59;14.27;;;7.55;;
57609;SDS011;43435;46.186;9.024;2023-06-22T19:55:24;12.25;;;7.32;;
57609;SDS011;43435;46.186;9.024;2023-06-22T19:57:49;11.68;;;7.50;;
57609;SDS011;43435;46.186;9.024;2023-06-22T20:00:19;13.10;;;7.70;;
57609;SDS011;43435;46.186;9.024;2023-06-22T20:02:49;19.70;;;12.52;;
57609;SDS011;43435;46.186;9.024;2023-06-22T20:05:19;14.85;;;10.18;;
57609;SDS011;43435;46.186;9.024;2023-06-22T20:07:45;17.95;;;11.98;;
57609;SDS011;43435;46.186;9.024;2023-06-22T20:10:11;14.48;;;8.45;;
57609;SDS011;43435;46.186;9.024;2023-06-22T20:12:42;14.30;;;8.98;;
57609;SDS011;43435;46.186;9.024;2023-06-22T20:17:51;21.10;;;11.73;;
57609;SDS011;43435;46.186;9.024;2023-06-22T20:20:18;38.13;;;28.17;;
57609;SDS011;43435;46.186;9.024;2023-06-22T20:22:47;26.73;;;16.73;;
57609;SDS011;43435;46.186;9.024;2023-06-22T20:25:17;15.95;;;10.05;;
57609;SDS011;43435;46.186;9.024;2023-06-22T20:27:49;18.90;;;11.55;;
57609;SDS011;43435;46.186;9.024;2023-06-22T20:30:16;15.65;;;10.00;;
57609;SDS011;43435;46.186;9.024;2023-06-22T20:32:49;19.33;;;10.63;;
57609;SDS011;43435;46.186;9.024;2023-06-22T20:35:16;11.90;;;8.75;;
57609;SDS011;43435;46.186;9.024;2023-06-22T20:37:44;16.80;;;9.38;;
57609;SDS011;43435;46.186;9.024;2023-06-22T20:40:10;10.90;;;6.85;;
57609;SDS011;43435;46.186;9.024;2023-06-22T20:42:37;11.05;;;7.68;;
57609;SDS011;43435;46.186;9.024;2023-06-22T20:45:03;14.63;;;8.00;;
57609;SDS011;43435;46.186;9.024;2023-06-22T20:47:30;11.98;;;7.18;;
57609;SDS011;43435;46.186;9.024;2023-06-22T20:49:55;13.48;;;8.23;;
57609;SDS011;43435;46.186;9.024;2023-06-22T20:52:24;12.85;;;6.97;;
57609;SDS011;43435;46.186;9.024;2023-06-22T20:54:52;9.77;;;7.50;;
57609;SDS011;43435;46.186;9.024;2023-06-22T20:57:18;13.07;;;7.28;;
57609;SDS011;43435;46.186;9.024;2023-06-22T20:59:44;14.95;;;7.53;;
57609;SDS011;43435;46.186;9.024;2023-06-22T21:02:10;10.45;;;7.82;;
57609;SDS011;43435;46.186;9.024;2023-06-22T21:04:36;11.98;;;8.05;;
57609;SDS011;43435;46.186;9.024;2023-06-22T21:07:01;10.60;;;6.95;;
57609;SDS011;43435;46.186;9.024;2023-06-22T21:09:26;13.43;;;7.35;;
57609;SDS011;43435;46.186;9.024;2023-06-22T21:11:52;12.48;;;7.05;;
57609;SDS011;43435;46.186;9.024;2023-06-22T21:14:18;12.43;;;7.55;;
57609;SDS011;43435;46.186;9.024;2023-06-22T21:16:43;11.73;;;7.18;;
57609;SDS011;43435;46.186;9.024;2023-06-22T21:19:08;13.18;;;8.02;;
57609;SDS011;43435;46.186;9.024;2023-06-22T21:21:34;12.23;;;6.60;;
57609;SDS011;43435;46.186;9.024;2023-06-22T21:23:59;13.38;;;8.02;;
57609;SDS011;43435;46.186;9.024;2023-06-22T21:26:25;9.68;;;7.18;;
57609;SDS011;43435;46.186;9.024;2023-06-22T21:28:51;13.75;;;7.30;;
57609;SDS011;43435;46.186;9.024;2023-06-22T21:31:17;10.23;;;7.20;;
57609;SDS011;43435;46.186;9.024;2023-06-22T21:33:42;12.43;;;7.07;;
57609;SDS011;43435;46.186;9.024;2023-06-22T21:36:08;11.32;;;6.93;;
57609;SDS011;43435;46.186;9.024;2023-06-22T21:38:33;12.02;;;7.25;;
57609;SDS011;43435;46.186;9.024;2023-06-22T21:40:58;10.20;;;6.40;;
57609;SDS011;43435;46.186;9.024;2023-06-22T21:43:23;12.13;;;6.90;;
57609;SDS011;43435;46.186;9.024;2023-06-22T21:45:49;9.10;;;6.60;;
57609;SDS011;43435;46.186;9.024;2023-06-22T21:48:16;13.13;;;6.47;;
57609;SDS011;43435;46.186;9.024;2023-06-22T21:50:41;13.60;;;6.50;;
57609;SDS011;43435;46.186;9.024;2023-06-22T21:53:07;15.15;;;6.90;;
57609;SDS011;43435;46.186;9.024;2023-06-22T21:55:32;10.30;;;6.03;;
57609;SDS011;43435;46.186;9.024;2023-06-22T21:57:57;12.20;;;6.30;;
57609;SDS011;43435;46.186;9.024;2023-06-22T22:00:23;14.07;;;6.75;;
57609;SDS011;43435;46.186;9.024;2023-06-22T22:02:48;14.15;;;7.60;;
57609;SDS011;43435;46.186;9.024;2023-06-22T22:05:14;14.20;;;6.63;;
57609;SDS011;43435;46.186;9.024;2023-06-22T22:07:39;9.68;;;6.60;;
57609;SDS011;43435;46.186;9.024;2023-06-22T22:10:04;10.97;;;7.03;;
57609;SDS011;43435;46.186;9.024;2023-06-22T22:12:30;13.38;;;6.75;;
57609;SDS011;43435;46.186;9.024;2023-06-22T22:14:55;11.63;;;6.93;;
57609;SDS011;43435;46.186;9.024;2023-06-22T22:17:21;8.98;;;6.90;;
57609;SDS011;43435;46.186;9.024;2023-06-22T22:19:46;11.17;;;6.17;;
57609;SDS011;43435;46.186;9.024;2023-06-22T22:22:12;9.88;;;6.25;;
57609;SDS011;43435;46.186;9.024;2023-06-22T22:24:38;11.48;;;5.25;;
57609;SDS011;43435;46.186;9.024;2023-06-22T22:27:04;8.63;;;3.75;;
57609;SDS011;43435;46.186;9.024;2023-06-22T22:29:29;8.77;;;3.17;;
57609;SDS011;43435;46.186;9.024;2023-06-22T22:31:54;6.90;;;2.20;;
57609;SDS011;43435;46.186;9.024;2023-06-22T22:34:20;4.78;;;2.17;;
57609;SDS011;43435;46.186;9.024;2023-06-22T22:36:45;9.93;;;1.98;;
57609;SDS011;43435;46.186;9.024;2023-06-22T22:39:13;4.75;;;1.48;;
57609;SDS011;43435;46.186;9.024;2023-06-22T22:41:53;4.60;;;1.65;;
57609;SDS011;43435;46.186;9.024;2023-06-22T22:44:18;3.67;;;1.50;;
57609;SDS011;43435;46.186;9.024;2023-06-22T22:46:44;6.75;;;2.10;;
57609;SDS011;43435;46.186;9.024;2023-06-22T22:49:09;2.43;;;1.30;;
57609;SDS011;43435;46.186;9.024;2023-06-22T22:51:34;5.95;;;2.45;;
57609;SDS011;43435;46.186;9.024;2023-06-22T22:53:59;2.65;;;0.95;;
57609;SDS011;43435;46.186;9.024;2023-06-22T22:56:25;3.22;;;1.20;;
57609;SDS011;43435;46.186;9.024;2023-06-22T22:58:50;5.53;;;1.10;;
57609;SDS011;43435;46.186;9.024;2023-06-22T23:01:15;2.50;;;1.20;;
57609;SDS011;43435;46.186;9.024;2023-06-22T23:03:41;4.22;;;1.35;;
57609;SDS011;43435;46.186;9.024;2023-06-22T23:06:06;7.32;;;1.90;;
57609;SDS011;43435;46.186;9.024;2023-06-22T23:08:32;4.10;;;1.42;;
57609;SDS011;43435;46.186;9.024;2023-06-22T23:10:57;4.70;;;1.60;;
57609;SDS011;43435;46.186;9.024;2023-06-22T23:13:23;3.88;;;1.50;;
57609;SDS011;43435;46.186;9.024;2023-06-22T23:15:48;3.75;;;1.40;;
57609;SDS011;43435;46.186;9.024;2023-06-22T23:18:15;5.03;;;1.58;;
57609;SDS011;43435;46.186;9.024;2023-06-22T23:20:40;4.90;;;1.40;;
57609;SDS011;43435;46.186;9.024;2023-06-22T23:23:06;3.53;;;1.20;;
57609;SDS011;43435;46.186;9.024;2023-06-22T23:25:31;3.60;;;1.20;;
57609;SDS011;43435;46.186;9.024;2023-06-22T23:27:57;2.70;;;1.40;;
57609;SDS011;43435;46.186;9.024;2023-06-22T23:30:23;4.63;;;1.33;;
57609;SDS011;43435;46.186;9.024;2023-06-22T23:32:51;3.10;;;1.25;;
57609;SDS011;43435;46.186;9.024;2023-06-22T23:35:17;3.28;;;1.15;;
57609;SDS011;43435;46.186;9.024;2023-06-22T23:37:43;3.15;;;1.45;;
57609;SDS011;43435;46.186;9.024;2023-06-22T23:40:12;5.22;;;1.27;;
57609;SDS011;43435;46.186;9.024;2023-06-22T23:42:41;4.07;;;1.33;;
57609;SDS011;43435;46.186;9.024;2023-06-22T23:45:11;4.57;;;1.55;;
57609;SDS011;43435;46.186;9.024;2023-06-22T23:47:50;3.65;;;1.30;;
57609;SDS011;43435;46.186;9.024;2023-06-22T23:50:15;2.45;;;1.35;;
57609;SDS011;43435;46.186;9.024;2023-06-22T23:52:42;5.43;;;1.67;;
57609;SDS011;43435;46.186;9.024;2023-06-22T23:55:13;2.05;;;1.10;;
57609;SDS011;43435;46.186;9.024;2023-06-22T23:57:38;4.68;;;1.25;;
